createdAt,value
2022-12-18T00:01:30.283Z,91.70
2022-12-18T00:03:58.761Z,91.80
2022-12-18T00:06:28.238Z,91.70
2022-12-18T00:08:57.770Z,91.60
2022-12-18T00:11:27.708Z,91.60
2022-12-18T00:13:58.036Z,91.50
2022-12-18T00:16:26.930Z,91.30
2022-12-18T00:18:57.318Z,91.40
2022-12-18T00:21:27.343Z,91.40
2022-12-18T00:23:55.971Z,91.50
2022-12-18T00:26:26.056Z,91.60
2022-12-18T00:29:06.625Z,91.30
2022-12-18T00:31:34.837Z,91.30
2022-12-18T00:34:03.240Z,91.40
2022-12-18T00:36:34.278Z,91.10
2022-12-18T00:39:05.883Z,91.00
2022-12-18T00:41:52.086Z,90.80
2022-12-18T00:44:20.512Z,90.60
2022-12-18T00:46:49.011Z,90.50
2022-12-18T00:49:18.842Z,90.50
2022-12-18T00:51:47.299Z,90.40
2022-12-18T00:54:14.666Z,90.30
2022-12-18T00:56:49.992Z,90.40
2022-12-18T00:59:19.245Z,90.50
2022-12-18T01:01:47.226Z,90.20
2022-12-18T01:04:15.471Z,90.10
2022-12-18T01:06:46.202Z,90.10
2022-12-18T01:09:14.005Z,90.10
2022-12-18T01:11:41.264Z,90.00
2022-12-18T01:14:08.701Z,90.10
2022-12-18T01:16:38.550Z,90.40
2022-12-18T01:19:06.165Z,90.10
2022-12-18T01:21:34.620Z,90.30
2022-12-18T01:24:05.745Z,90.10
2022-12-18T01:26:33.109Z,90.10
2022-12-18T01:29:00.475Z,90.10
2022-12-18T01:31:30.451Z,90.10
2022-12-18T01:33:58.345Z,90.40
2022-12-18T01:36:34.148Z,90.20
2022-12-18T01:39:04.845Z,90.20
2022-12-18T01:41:52.957Z,90.40
2022-12-18T01:44:51.677Z,90.30
2022-12-18T01:47:29.943Z,90.30
2022-12-18T01:49:59.566Z,90.20
2022-12-18T01:52:33.227Z,90.50
2022-12-18T01:55:02.665Z,90.30
2022-12-18T01:57:30.646Z,90.50
2022-12-18T02:00:02.505Z,90.30
2022-12-18T02:02:42.922Z,90.40
2022-12-18T02:05:12.702Z,90.40
2022-12-18T02:08:18.018Z,90.40
2022-12-18T02:11:06.970Z,90.50
2022-12-18T02:13:56.503Z,90.40
2022-12-18T02:16:55.126Z,90.30
2022-12-18T02:19:42.076Z,90.20
2022-12-18T02:22:12.554Z,90.20
2022-12-18T02:24:56.354Z,90.20
2022-12-18T02:27:23.840Z,90.30
2022-12-18T02:29:59.089Z,90.20
2022-12-18T02:32:40.588Z,90.20
2022-12-18T02:35:14.801Z,90.10
2022-12-18T02:37:46.074Z,90.40
2022-12-18T02:40:16.246Z,90.20
2022-12-18T02:42:43.822Z,90.20
2022-12-18T02:45:13.835Z,90.30
2022-12-18T02:47:44.707Z,90.40
2022-12-18T02:50:27.384Z,90.40
2022-12-18T02:53:19.918Z,90.60
2022-12-18T02:56:10.609Z,90.50
2022-12-18T02:58:57.334Z,90.70
2022-12-18T03:01:56.142Z,90.70
2022-12-18T03:04:39.865Z,90.90
2022-12-18T03:07:12.446Z,90.80
2022-12-18T03:09:47.024Z,90.90
2022-12-18T03:12:37.821Z,90.90
2022-12-18T03:15:17.866Z,90.90
2022-12-18T03:17:55.707Z,90.90
2022-12-18T03:20:30.074Z,91.00
2022-12-18T03:23:05.079Z,91.20
2022-12-18T03:25:34.091Z,90.40
2022-12-18T03:28:04.086Z,91.00
2022-12-18T03:30:35.863Z,91.40
2022-12-18T03:33:14.341Z,91.20
2022-12-18T03:35:45.923Z,91.20
2022-12-18T03:38:13.723Z,91.00
2022-12-18T03:40:52.464Z,91.00
2022-12-18T03:43:45.759Z,91.10
2022-12-18T03:46:30.978Z,91.00
2022-12-18T03:49:11.435Z,90.90
2022-12-18T03:51:41.846Z,90.90
2022-12-18T03:54:11.279Z,90.90
2022-12-18T03:56:49.183Z,90.80
2022-12-18T03:59:18.006Z,90.80
2022-12-18T04:01:50.554Z,90.30
2022-12-18T04:04:19.907Z,90.80
2022-12-18T04:06:50.107Z,90.90
2022-12-18T04:09:20.886Z,90.70
2022-12-18T04:11:48.995Z,90.70
2022-12-18T04:14:18.255Z,90.70
2022-12-18T04:16:47.293Z,90.70
2022-12-18T04:19:17.259Z,90.60
2022-12-18T04:21:46.287Z,90.70
2022-12-18T04:24:15.218Z,90.90
2022-12-18T04:26:51.755Z,90.90
2022-12-18T04:29:24.349Z,91.00
2022-12-18T04:31:51.776Z,90.90
2022-12-18T04:34:19.996Z,91.20
2022-12-18T04:36:51.239Z,90.90
2022-12-18T04:39:18.987Z,91.00
2022-12-18T04:41:47.199Z,90.90
2022-12-18T04:44:15.046Z,91.00
2022-12-18T04:46:42.766Z,90.80
2022-12-18T04:49:11.356Z,91.00
2022-12-18T04:51:38.650Z,91.10
2022-12-18T04:54:06.025Z,91.00
2022-12-18T04:56:33.665Z,90.90
2022-12-18T04:59:01.310Z,90.90
2022-12-18T05:01:34.211Z,90.90
2022-12-18T05:04:02.933Z,91.00
2022-12-18T05:06:30.418Z,90.90
2022-12-18T05:08:57.923Z,90.70
2022-12-18T05:11:25.252Z,90.70
2022-12-18T05:13:52.556Z,90.70
2022-12-18T05:16:19.982Z,90.70
2022-12-18T05:18:47.445Z,90.70
2022-12-18T05:21:15.336Z,90.60
2022-12-18T05:23:43.345Z,90.60
2022-12-18T05:26:17.059Z,90.50
2022-12-18T05:28:45.016Z,90.60
2022-12-18T05:31:12.848Z,90.50
2022-12-18T05:33:40.675Z,90.50
2022-12-18T05:36:09.963Z,90.50
2022-12-18T05:38:39.474Z,90.50
2022-12-18T05:41:07.821Z,90.50
2022-12-18T05:43:37.164Z,90.40
2022-12-18T05:46:06.812Z,90.40
2022-12-18T05:48:34.419Z,90.50
2022-12-18T05:51:07.123Z,90.40
2022-12-18T05:53:36.262Z,90.30
2022-12-18T05:56:05.766Z,90.40
2022-12-18T05:58:34.023Z,90.40
2022-12-18T06:01:17.141Z,90.30
2022-12-18T06:03:45.536Z,90.50
2022-12-18T06:06:20.950Z,90.40
2022-12-18T06:08:48.707Z,90.30
2022-12-18T06:11:22.776Z,90.30
2022-12-18T06:13:59.061Z,90.30
2022-12-18T06:16:28.407Z,90.30
2022-12-18T06:18:59.930Z,90.20
2022-12-18T06:21:29.183Z,90.20
2022-12-18T06:23:57.127Z,90.10
2022-12-18T06:26:28.245Z,90.30
2022-12-18T06:28:56.947Z,90.10
2022-12-18T06:31:25.561Z,90.00
2022-12-18T06:33:52.976Z,90.00
2022-12-18T06:36:21.579Z,90.20
2022-12-18T06:38:48.950Z,90.10
2022-12-18T06:41:18.636Z,89.80
2022-12-18T06:43:46.105Z,89.90
2022-12-18T06:46:13.823Z,89.90
2022-12-18T06:48:41.291Z,90.00
2022-12-18T06:51:08.944Z,89.80
2022-12-18T06:53:36.221Z,90.30
2022-12-18T06:56:10.722Z,90.00
2022-12-18T06:58:39.648Z,90.00
2022-12-18T07:01:09.982Z,90.00
2022-12-18T07:03:39.242Z,89.80
2022-12-18T07:06:07.289Z,90.10
2022-12-18T07:08:34.720Z,89.80
2022-12-18T07:11:05.406Z,89.90
2022-12-18T07:13:33.123Z,89.80
2022-12-18T07:16:24.272Z,89.80
2022-12-18T07:18:53.107Z,89.60
2022-12-18T07:21:21.751Z,89.60
2022-12-18T07:23:49.591Z,89.50
2022-12-18T07:26:19.684Z,89.50
2022-12-18T07:28:47.132Z,89.70
2022-12-18T07:31:17.592Z,89.90
2022-12-18T07:33:46.315Z,90.00
2022-12-18T07:36:14.559Z,89.80
2022-12-18T07:38:42.443Z,89.70
2022-12-18T07:41:13.991Z,89.60
2022-12-18T07:43:43.195Z,90.00
2022-12-18T07:46:13.442Z,89.70
2022-12-18T07:48:49.557Z,89.80
2022-12-18T07:51:19.276Z,89.60
2022-12-18T07:53:47.022Z,89.60
2022-12-18T07:56:29.462Z,88.50
2022-12-18T07:58:59.195Z,89.50
2022-12-18T08:01:26.843Z,89.70
2022-12-18T08:03:54.472Z,90.10
2022-12-18T08:06:24.283Z,89.80
2022-12-18T08:08:56.516Z,89.80
2022-12-18T08:11:26.250Z,90.20
2022-12-18T08:13:56.782Z,90.00
2022-12-18T08:16:24.251Z,90.10
2022-12-18T08:18:53.527Z,90.10
2022-12-18T08:21:24.224Z,90.20
2022-12-18T08:23:53.797Z,90.30
2022-12-18T08:26:21.844Z,90.40
2022-12-18T08:28:50.086Z,90.40
2022-12-18T08:31:19.767Z,90.60
2022-12-18T08:33:50.560Z,90.70
2022-12-18T08:36:18.335Z,90.80
2022-12-18T08:38:46.064Z,91.20
2022-12-18T08:41:15.736Z,91.00
2022-12-18T08:44:01.935Z,91.20
2022-12-18T08:46:36.917Z,91.10
2022-12-18T08:49:05.430Z,91.40
2022-12-18T08:51:33.825Z,91.60
2022-12-18T08:54:02.981Z,91.50
2022-12-18T08:56:32.605Z,91.30
2022-12-18T08:59:00.407Z,91.20
2022-12-18T09:01:28.246Z,91.10
2022-12-18T09:03:56.026Z,91.00
2022-12-18T09:06:23.867Z,90.80
2022-12-18T09:08:51.716Z,90.80
2022-12-18T09:11:27.495Z,90.70
2022-12-18T09:13:56.563Z,90.60
2022-12-18T09:16:31.694Z,90.60
2022-12-18T09:19:02.610Z,90.50
2022-12-18T09:31:12.542Z,89.50
2022-12-18T09:33:41.225Z,88.90
2022-12-18T09:36:13.369Z,87.70
2022-12-18T09:38:41.945Z,88.00
2022-12-18T09:41:20.957Z,87.40
2022-12-18T09:43:53.789Z,87.60
2022-12-18T09:46:30.943Z,86.80
2022-12-18T09:55:47.020Z,86.80
2022-12-18T09:58:42.097Z,86.40
2022-12-18T10:01:32.027Z,86.10
2022-12-18T10:04:09.897Z,86.00
2022-12-18T10:07:31.599Z,85.00
2022-12-18T10:10:16.842Z,85.70
2022-12-18T10:13:22.704Z,84.10
2022-12-18T10:19:44.801Z,86.30
2022-12-18T10:22:44.580Z,83.50
2022-12-18T10:25:28.020Z,84.20
2022-12-18T10:28:14.252Z,84.80
2022-12-18T10:30:47.382Z,85.90
2022-12-18T10:33:23.302Z,86.30
2022-12-18T10:35:59.630Z,85.20
2022-12-18T10:38:33.484Z,84.80
2022-12-18T10:41:02.170Z,85.40
2022-12-18T10:50:05.356Z,85.80
2022-12-18T10:58:31.656Z,85.60
2022-12-18T11:01:07.124Z,86.00
2022-12-18T11:03:40.869Z,87.40
2022-12-18T11:06:17.644Z,86.50
2022-12-18T11:09:12.222Z,86.70
2022-12-18T11:11:41.528Z,87.50
2022-12-18T11:14:22.870Z,87.00
2022-12-18T11:29:18.054Z,87.20
2022-12-18T11:31:47.922Z,86.70
2022-12-18T11:34:30.591Z,85.00
2022-12-18T11:37:00.918Z,85.60
2022-12-18T11:39:39.637Z,85.90
2022-12-18T11:42:20.925Z,86.80
2022-12-18T11:44:55.964Z,87.40
2022-12-18T11:47:38.493Z,87.40
2022-12-18T11:50:19.863Z,87.00
2022-12-18T11:52:51.494Z,86.80
2022-12-18T11:55:33.870Z,86.40
2022-12-18T11:58:31.823Z,88.10
2022-12-18T12:13:59.873Z,88.40
2022-12-18T12:16:40.962Z,88.50
2022-12-18T12:19:23.637Z,87.80
2022-12-18T12:22:09.893Z,87.90
2022-12-18T12:24:49.814Z,88.20
2022-12-18T12:27:37.075Z,87.80
2022-12-18T12:30:06.369Z,87.80
2022-12-18T12:32:48.665Z,87.80
2022-12-18T12:35:30.590Z,87.70
2022-12-18T12:38:16.573Z,88.00
2022-12-18T12:41:04.238Z,88.40
2022-12-18T12:43:51.062Z,87.80
2022-12-18T12:46:23.095Z,89.00
2022-12-18T12:48:58.288Z,89.00
2022-12-18T12:51:33.656Z,89.00
2022-12-18T12:54:07.673Z,88.90
2022-12-18T13:00:07.843Z,89.00
2022-12-18T13:03:04.458Z,89.00
2022-12-18T13:12:24.169Z,88.40
2022-12-18T13:14:52.050Z,88.50
2022-12-18T13:17:24.632Z,88.60
2022-12-18T13:20:04.752Z,88.30
2022-12-18T13:22:38.579Z,88.70
2022-12-18T13:25:31.323Z,89.30
2022-12-18T13:28:09.877Z,89.70
2022-12-18T13:30:46.519Z,89.60
2022-12-18T13:33:20.793Z,89.70
2022-12-18T13:35:48.545Z,89.90
2022-12-18T13:38:26.890Z,89.50
2022-12-18T13:40:56.235Z,90.00
2022-12-18T13:43:23.607Z,90.00
2022-12-18T13:46:24.229Z,90.00
2022-12-18T13:49:38.453Z,90.00
2022-12-18T13:52:25.538Z,90.00
2022-12-18T13:55:02.117Z,89.90
2022-12-18T13:57:44.646Z,90.00
2022-12-18T14:00:18.161Z,90.00
2022-12-18T14:02:46.745Z,90.00
2022-12-18T14:05:29.744Z,89.90
2022-12-18T14:08:02.555Z,90.00
2022-12-18T14:10:48.147Z,90.00
2022-12-18T14:13:24.998Z,89.80
2022-12-18T14:15:52.610Z,89.90
2022-12-18T14:18:43.168Z,89.90
2022-12-18T14:21:33.419Z,90.00
2022-12-18T14:24:14.419Z,90.00
2022-12-18T14:26:42.089Z,90.00
2022-12-18T14:29:23.945Z,89.80
2022-12-18T14:32:18.301Z,89.90
2022-12-18T14:34:56.435Z,90.00
2022-12-18T14:37:26.731Z,89.80
2022-12-18T14:40:10.670Z,90.00
2022-12-18T14:42:38.872Z,90.00
2022-12-18T14:45:41.108Z,89.90
2022-12-18T14:48:17.833Z,89.80
2022-12-18T14:51:17.675Z,89.80
2022-12-18T14:54:04.095Z,90.00
2022-12-18T14:56:44.327Z,90.00
2022-12-18T14:59:23.862Z,90.10
2022-12-18T15:02:03.971Z,90.10
2022-12-18T15:04:36.163Z,90.10
2022-12-18T15:07:17.624Z,90.10
2022-12-18T15:10:05.048Z,90.10
2022-12-18T15:12:51.316Z,90.20
2022-12-18T15:15:34.223Z,90.20
2022-12-18T15:18:08.706Z,90.20
2022-12-18T15:20:43.999Z,90.20
2022-12-18T15:23:19.356Z,90.20
2022-12-18T15:25:48.816Z,90.30
2022-12-18T15:28:25.191Z,90.40
2022-12-18T15:31:01.075Z,90.30
2022-12-18T15:33:37.450Z,90.30
2022-12-18T15:36:10.767Z,90.30
2022-12-18T15:38:38.401Z,90.30
2022-12-18T15:41:17.781Z,90.30
2022-12-18T15:43:50.119Z,90.40
2022-12-18T15:46:20.521Z,90.40
2022-12-18T15:48:57.987Z,90.40
2022-12-18T15:51:35.329Z,90.40
2022-12-18T15:54:05.670Z,90.40
2022-12-18T15:56:53.974Z,90.50
2022-12-18T15:59:22.360Z,90.50
2022-12-18T16:01:52.164Z,90.50
2022-12-18T16:04:21.771Z,90.60
2022-12-18T16:09:37.748Z,90.70
2022-12-18T16:12:06.220Z,90.70
2022-12-18T16:14:34.096Z,90.70
2022-12-18T16:17:04.253Z,90.70
2022-12-18T16:19:31.575Z,90.70
2022-12-18T16:22:01.143Z,90.70
2022-12-18T16:24:31.206Z,90.70
2022-12-18T16:27:00.948Z,91.00
2022-12-18T16:29:30.213Z,90.70
2022-12-18T16:31:59.624Z,90.70
2022-12-18T16:34:30.977Z,90.70
2022-12-18T16:37:06.322Z,90.70
2022-12-18T16:39:38.516Z,90.60
2022-12-18T16:42:15.255Z,90.60
2022-12-18T16:44:43.295Z,90.60
2022-12-18T16:47:12.934Z,90.70
2022-12-18T16:49:45.123Z,90.70
2022-12-18T16:52:14.288Z,90.60
2022-12-18T16:54:42.423Z,90.70
2022-12-18T16:57:12.952Z,90.70
2022-12-18T16:59:40.536Z,90.70
2022-12-18T17:02:15.754Z,90.80
2022-12-18T17:04:45.906Z,90.80
2022-12-18T17:07:14.823Z,90.40
2022-12-18T17:09:42.522Z,90.80
2022-12-18T17:12:10.479Z,90.40
2022-12-18T17:14:38.936Z,90.80
2022-12-18T17:17:20.884Z,90.70
2022-12-18T17:19:50.296Z,90.80
2022-12-18T17:22:21.073Z,90.80
2022-12-18T17:24:51.944Z,90.80
2022-12-18T17:27:28.168Z,90.70
2022-12-18T17:29:55.952Z,90.70
2022-12-18T17:32:23.668Z,90.80
2022-12-18T17:34:51.037Z,90.80
2022-12-18T17:37:18.429Z,90.80
2022-12-18T17:39:45.737Z,90.80
2022-12-18T17:42:15.035Z,90.80
2022-12-18T17:44:43.634Z,90.90
2022-12-18T17:47:12.878Z,91.00
2022-12-18T18:03:10.050Z,91.10
2022-12-18T18:18:08.553Z,91.10
2022-12-18T18:23:36.230Z,91.30
2022-12-18T18:38:18.184Z,91.40
2022-12-18T18:49:36.542Z,91.50
2022-12-18T19:35:07.828Z,91.50
2022-12-18T20:24:31.381Z,91.20
2022-12-18T20:29:49.843Z,91.20
2022-12-18T20:35:27.997Z,91.10
2022-12-18T20:37:57.226Z,91.10
2022-12-18T20:47:18.121Z,91.00
2022-12-18T20:49:54.980Z,91.10
2022-12-18T20:56:01.129Z,90.90
2022-12-18T20:59:03.461Z,90.60
2022-12-18T21:01:44.334Z,90.70
2022-12-18T21:13:31.790Z,90.80
2022-12-18T21:16:17.649Z,90.60
2022-12-18T21:21:38.762Z,90.90
2022-12-18T21:24:13.463Z,90.80
2022-12-18T21:26:48.974Z,90.80
2022-12-18T21:35:28.104Z,90.90
2022-12-18T21:41:45.179Z,90.60
2022-12-18T21:50:45.631Z,90.30
2022-12-18T21:58:08.130Z,90.40
2022-12-18T22:23:39.998Z,90.40
2022-12-18T22:29:33.243Z,90.10
2022-12-18T22:35:16.327Z,90.60
2022-12-18T23:13:19.290Z,90.00
2022-12-18T23:15:55.074Z,88.90
2022-12-18T23:18:55.159Z,89.20
2022-12-18T23:32:25.549Z,89.80
2022-12-18T23:41:50.166Z,89.40
2022-12-18T23:44:47.733Z,90.00
2022-12-18T23:57:54.547Z,89.80
